Jennings, Missouri
Current Conditions -  °F | °C
As of 8:51 PM on Friday 19 Dec 2014 (Local Time) from KSTL Reporting Station
Haze Haze  
Wind Chill: 30°   Ceiling: 5500
Heat Index: 36°   Visibility: 6mi
Dew Point: 28°   Wind: 8mph
Humidity: 73%   Direction: 110°ESE
Pressure: 30.26"   Gusts: NA
Location:  38.72°N, 90.25°W
Report Text: KSTL 200251Z 11007KT 6SM HZ OVC055 02/M02 A3026 RMK AO2 SLP255 T00221022 56005
Loading
Personal Weather Stations






























Interactive Weather Map New forecast layout! Learn more

10-Day Weather Forecast

Advertisements
Track Severe Weather on mobile